createdAt,value
2023-04-28T00:02:19.749Z,100475.06
2023-04-28T00:04:47.690Z,100472.78
2023-04-28T00:07:14.977Z,100467.59
2023-04-28T00:09:42.140Z,100466.22
2023-04-28T00:12:09.571Z,100467.56
2023-04-28T00:14:36.721Z,100474.19
2023-04-28T00:17:03.934Z,100480.41
2023-04-28T00:19:31.680Z,100473.94
2023-04-28T00:21:58.918Z,100469.62
2023-04-28T00:24:26.063Z,100471.97
2023-04-28T00:26:53.498Z,100466.09
2023-04-28T00:29:20.755Z,100463.87
2023-04-28T00:31:47.938Z,100461.88
2023-04-28T00:34:15.751Z,100458.47
2023-04-28T00:36:43.070Z,100463.59
2023-04-28T00:39:29.085Z,100466.06
2023-04-28T00:41:57.792Z,100459.38
2023-04-28T00:44:25.033Z,100461.50
2023-04-28T00:46:52.172Z,100465.06
2023-04-28T00:49:19.623Z,100464.84
2023-04-28T00:51:46.858Z,100464.22
2023-04-28T00:54:14.539Z,100468.00
2023-04-28T00:56:42.863Z,100472.56
2023-04-28T00:59:10.063Z,100474.97
2023-04-28T01:01:37.744Z,100470.31
2023-04-28T01:04:05.660Z,100482.28
2023-04-28T01:06:34.258Z,100482.31
2023-04-28T01:09:01.722Z,100487.03
2023-04-28T01:11:29.161Z,100488.53
2023-04-28T01:13:59.426Z,100482.62
2023-04-28T01:16:28.228Z,100490.66
2023-04-28T01:18:56.165Z,100488.09
2023-04-28T01:21:41.746Z,100484.47
2023-04-28T01:24:10.086Z,100481.16
2023-04-28T01:26:37.381Z,100487.06
2023-04-28T01:29:04.541Z,100479.91
2023-04-28T01:31:32.107Z,100484.94
2023-04-28T01:33:59.255Z,100492.13
2023-04-28T01:36:28.483Z,100476.16
2023-04-28T01:38:56.142Z,100482.00
2023-04-28T01:41:23.276Z,100476.72
2023-04-28T01:43:50.811Z,100475.47
2023-04-28T01:46:18.684Z,100486.75
2023-04-28T01:48:46.057Z,100483.44
2023-04-28T01:51:13.346Z,100478.59
2023-04-28T01:53:41.778Z,100480.72
2023-04-28T01:56:09.019Z,100490.97
2023-04-28T01:58:36.326Z,100480.97
2023-04-28T02:01:03.883Z,100475.09
2023-04-28T02:03:31.581Z,100481.25
2023-04-28T02:05:58.883Z,100493.00
2023-04-28T02:08:26.144Z,100486.09
2023-04-28T02:10:53.775Z,100491.63
2023-04-28T02:13:21.552Z,100483.97
2023-04-28T02:15:48.709Z,100490.56
2023-04-28T02:18:16.273Z,100489.16
2023-04-28T02:20:43.662Z,100490.56
2023-04-28T02:23:10.913Z,100491.47
2023-04-28T02:25:38.091Z,100491.47
2023-04-28T02:28:05.507Z,100489.16
2023-04-28T02:30:34.967Z,100496.97
2023-04-28T02:33:02.240Z,100485.56
2023-04-28T02:35:29.996Z,100493.53
2023-04-28T02:37:57.440Z,100484.16
2023-04-28T02:40:24.595Z,100490.16
2023-04-28T02:42:52.486Z,100494.78
2023-04-28T02:45:19.628Z,100495.66
2023-04-28T02:47:46.886Z,100499.78
2023-04-28T02:50:14.395Z,100492.09
2023-04-28T02:52:41.649Z,100494.81
2023-04-28T02:55:08.985Z,100495.53
2023-04-28T02:57:36.422Z,100485.31
2023-04-28T03:00:03.873Z,100500.06
2023-04-28T03:02:32.564Z,100497.47
2023-04-28T03:05:00.155Z,100492.25
2023-04-28T03:07:27.577Z,100499.69
2023-04-28T03:09:54.735Z,100496.59
2023-04-28T03:12:22.280Z,100499.16
2023-04-28T03:14:49.537Z,100499.16
2023-04-28T03:17:16.767Z,100501.47
2023-04-28T03:19:44.260Z,100503.12
2023-04-28T03:22:11.557Z,100501.22
2023-04-28T03:24:38.759Z,100494.81
2023-04-28T03:27:06.569Z,100494.56
2023-04-28T03:29:33.774Z,100496.50
2023-04-28T03:32:01.452Z,100499.16
2023-04-28T03:34:29.064Z,100500.19
2023-04-28T03:36:56.258Z,100512.34
2023-04-28T03:39:24.129Z,100503.53
2023-04-28T03:41:51.761Z,100506.72
2023-04-28T03:44:24.808Z,100500.47
2023-04-28T03:46:52.650Z,100498.91
2023-04-28T03:49:19.815Z,100499.69
2023-04-28T03:51:47.919Z,100505.84
2023-04-28T03:54:15.884Z,100502.00
2023-04-28T03:56:44.137Z,100509.31
2023-04-28T03:59:12.272Z,100505.53
2023-04-28T04:01:39.777Z,100505.56
2023-04-28T04:04:07.418Z,100504.25
2023-04-28T04:06:34.860Z,100510.94
2023-04-28T04:09:02.243Z,100505.41
2023-04-28T04:11:29.650Z,100510.03
2023-04-28T04:13:57.088Z,100504.13
2023-04-28T04:16:24.687Z,100508.09
2023-04-28T04:18:53.160Z,100518.06
2023-04-28T04:21:20.453Z,100514.34
2023-04-28T04:23:47.785Z,100512.63
2023-04-28T04:26:15.236Z,100515.44
2023-04-28T04:28:42.390Z,100522.97
2023-04-28T04:31:09.916Z,100515.63
2023-04-28T04:33:37.922Z,100510.16
2023-04-28T04:36:05.650Z,100519.63
2023-04-28T04:38:33.490Z,100520.78
2023-04-28T04:41:02.545Z,100521.19
2023-04-28T04:43:29.747Z,100510.19
2023-04-28T04:45:56.971Z,100511.56
2023-04-28T04:48:24.518Z,100510.19
2023-04-28T04:50:51.892Z,100518.81
2023-04-28T04:53:20.183Z,100512.66
2023-04-28T04:55:47.634Z,100514.31
2023-04-28T04:58:15.286Z,100518.69
2023-04-28T05:00:44.024Z,100523.19
2023-04-28T05:03:12.166Z,100521.19
2023-04-28T05:05:40.193Z,100521.69
2023-04-28T05:08:08.182Z,100516.75
2023-04-28T05:10:35.787Z,100520.50
2023-04-28T05:13:03.917Z,100522.38
2023-04-28T05:15:31.474Z,100515.47
2023-04-28T05:18:00.855Z,100512.06
2023-04-28T05:20:28.283Z,100516.13
2023-04-28T05:22:55.750Z,100517.69
2023-04-28T05:25:23.509Z,100522.06
2023-04-28T05:27:50.894Z,100515.37
2023-04-28T05:30:18.152Z,100514.41
2023-04-28T05:32:46.467Z,100522.88
2023-04-28T05:35:15.164Z,100514.91
2023-04-28T05:37:43.732Z,100512.94
2023-04-28T05:40:11.241Z,100519.19
2023-04-28T05:42:38.864Z,100516.38
2023-04-28T05:45:06.882Z,100522.44
2023-04-28T05:47:34.357Z,100523.34
2023-04-28T05:50:01.560Z,100531.94
2023-04-28T05:52:28.978Z,100526.22
2023-04-28T05:54:56.470Z,100524.94
2023-04-28T05:57:23.653Z,100520.75
2023-04-28T05:59:50.869Z,100525.78
2023-04-28T06:02:19.818Z,100521.13
2023-04-28T06:04:49.105Z,100518.66
2023-04-28T06:07:16.729Z,100522.66
2023-04-28T06:09:43.907Z,100524.44
2023-04-28T06:12:11.329Z,100529.34
2023-04-28T06:14:38.570Z,100527.22
2023-04-28T06:17:06.220Z,100531.87
2023-04-28T06:19:33.596Z,100526.03
2023-04-28T06:22:00.916Z,100533.44
2023-04-28T06:24:28.083Z,100526.62
2023-04-28T06:26:55.773Z,100522.09
2023-04-28T06:29:24.107Z,100530.19
2023-04-28T06:31:52.814Z,100530.09
2023-04-28T06:34:20.665Z,100524.03
2023-04-28T06:36:48.668Z,100523.31
2023-04-28T06:39:15.826Z,100527.94
2023-04-28T06:41:43.398Z,100531.91
2023-04-28T06:44:11.934Z,100527.75
2023-04-28T06:46:39.285Z,100519.00
2023-04-28T06:49:06.732Z,100531.75
2023-04-28T06:51:34.498Z,100532.47
2023-04-28T06:54:01.716Z,100534.88
2023-04-28T06:56:29.160Z,100527.75
2023-04-28T06:58:59.698Z,100531.84
2023-04-28T07:01:27.171Z,100528.69
2023-04-28T07:03:54.881Z,100521.59
2023-04-28T07:06:22.371Z,100522.91
2023-04-28T07:08:49.557Z,100515.31
2023-04-28T07:11:17.069Z,100511.63
2023-04-28T07:13:46.451Z,100519.94
2023-04-28T07:16:13.793Z,100519.34
2023-04-28T07:18:41.215Z,100517.47
2023-04-28T07:21:08.904Z,100519.41
2023-04-28T07:23:38.678Z,100510.94
2023-04-28T07:26:06.178Z,100516.78
2023-04-28T07:28:33.361Z,100511.56
2023-04-28T07:31:00.559Z,100505.44
2023-04-28T07:33:28.200Z,100500.09
2023-04-28T07:35:55.380Z,100505.59
2023-04-28T07:38:22.638Z,100498.28
2023-04-28T07:43:22.494Z,100501.75
2023-04-28T07:45:50.182Z,100504.19
2023-04-28T07:48:17.503Z,100494.41
2023-04-28T07:50:44.680Z,100490.78
2023-04-28T07:53:12.114Z,100487.78
2023-04-28T07:55:42.017Z,100491.81
2023-04-28T07:58:09.217Z,100484.59
2023-04-28T08:00:36.655Z,100475.22
2023-04-28T08:03:04.493Z,100468.88
2023-04-28T08:05:32.449Z,100457.69
2023-04-28T08:07:59.944Z,100463.47
2023-04-28T08:10:28.034Z,100458.56
2023-04-28T08:12:55.213Z,100460.87
2023-04-28T08:15:22.351Z,100449.19
2023-04-28T08:17:49.957Z,100447.50
2023-04-28T08:20:20.638Z,100452.16
2023-04-28T08:22:49.858Z,100446.75
2023-04-28T08:25:18.490Z,100443.13
2023-04-28T08:27:45.674Z,100440.25
2023-04-28T08:30:13.338Z,100437.94
2023-04-28T08:32:40.507Z,100441.75
2023-04-28T08:35:08.049Z,100440.19
2023-04-28T08:37:35.918Z,100435.50
2023-04-28T08:40:03.337Z,100437.66
2023-04-28T08:42:31.197Z,100437.09
2023-04-28T08:44:59.824Z,100436.81
2023-04-28T08:47:49.680Z,100435.34
2023-04-28T08:50:18.484Z,100426.97
2023-04-28T08:52:45.707Z,100428.91
2023-04-28T08:55:13.173Z,100421.91
2023-04-28T08:57:44.862Z,100420.66
2023-04-28T09:00:12.519Z,100421.06
2023-04-28T09:02:42.481Z,100437.03
2023-04-28T09:05:11.001Z,100425.81
2023-04-28T09:07:38.380Z,100423.94
2023-04-28T09:10:21.812Z,100425.41
2023-04-28T09:12:51.498Z,100430.75
2023-04-28T09:15:28.455Z,100428.69
2023-04-28T09:17:56.002Z,100429.25
2023-04-28T09:20:24.242Z,100424.59
2023-04-28T09:22:51.890Z,100422.78
2023-04-28T09:25:21.416Z,100416.81
2023-04-28T09:27:51.381Z,100419.09
2023-04-28T09:30:18.698Z,100420.81
2023-04-28T09:32:46.494Z,100422.47
2023-04-28T09:35:14.680Z,100426.50
2023-04-28T09:37:43.413Z,100416.97
2023-04-28T09:40:12.611Z,100418.16
2023-04-28T09:42:40.781Z,100415.91
2023-04-28T09:45:14.551Z,100399.75
2023-04-28T09:47:43.138Z,100402.13
2023-04-28T09:50:14.770Z,100408.56
2023-04-28T09:52:44.258Z,100402.16
2023-04-28T09:55:12.501Z,100401.12
2023-04-28T09:57:39.950Z,100404.53
2023-04-28T10:00:09.146Z,100398.53
2023-04-28T10:05:09.619Z,100392.97
2023-04-28T10:07:37.705Z,100374.06
2023-04-28T10:10:05.497Z,100372.59
2023-04-28T10:12:33.721Z,100381.31
2023-04-28T10:15:01.328Z,100381.06
2023-04-28T10:17:29.646Z,100371.44
2023-04-28T10:19:57.531Z,100365.87
2023-04-28T10:22:43.596Z,100362.03
2023-04-28T10:25:29.903Z,100362.69
2023-04-28T10:27:57.970Z,100343.44
2023-04-28T10:30:28.610Z,100342.81
2023-04-28T10:33:09.353Z,100333.50
2023-04-28T10:35:37.561Z,100337.19
2023-04-28T10:38:12.428Z,100344.38
2023-04-28T10:40:40.007Z,100340.25
2023-04-28T10:43:08.630Z,100325.69
2023-04-28T10:45:53.810Z,100325.53
2023-04-28T10:48:24.024Z,100326.50
2023-04-28T10:50:56.999Z,100324.56
2023-04-28T10:53:44.880Z,100315.81
2023-04-28T10:56:18.496Z,100312.16
2023-04-28T10:58:46.601Z,100308.06
2023-04-28T11:01:24.997Z,100305.50
2023-04-28T11:04:08.265Z,100301.78
2023-04-28T11:06:36.579Z,100306.06
2023-04-28T11:09:19.483Z,100311.13
2023-04-28T11:12:06.765Z,100299.00
2023-04-28T11:14:35.206Z,100293.72
2023-04-28T11:17:03.861Z,100296.94
2023-04-28T11:19:37.930Z,100293.12
2023-04-28T11:22:11.578Z,100281.41
2023-04-28T11:24:38.881Z,100271.06
2023-04-28T11:27:06.404Z,100280.69
2023-04-28T11:29:33.643Z,100286.41
2023-04-28T11:32:01.445Z,100291.84
2023-04-28T11:34:28.917Z,100282.66
2023-04-28T11:36:56.179Z,100281.13
2023-04-28T11:39:28.692Z,100282.28
2023-04-28T11:41:56.313Z,100280.22
2023-04-28T11:44:42.335Z,100280.09
2023-04-28T11:47:10.287Z,100271.94
2023-04-28T11:49:44.228Z,100267.28
2023-04-28T11:52:11.833Z,100263.28
2023-04-28T11:54:39.161Z,100266.22
2023-04-28T11:57:06.756Z,100260.06
2023-04-28T11:59:35.129Z,100261.09
2023-04-28T12:02:03.393Z,100253.56
2023-04-28T12:04:31.983Z,100248.53
2023-04-28T12:07:07.144Z,100257.78
2023-04-28T12:09:35.352Z,100258.16
2023-04-28T12:12:06.602Z,100252.25
2023-04-28T12:14:39.849Z,100250.66
2023-04-28T12:17:07.326Z,100242.09
2023-04-28T12:19:44.450Z,100249.84
2023-04-28T12:22:11.908Z,100235.50
2023-04-28T12:24:41.126Z,100243.97
2023-04-28T12:27:21.878Z,100241.09
2023-04-28T12:29:49.528Z,100233.53
2023-04-28T12:32:17.425Z,100226.63
2023-04-28T12:34:45.566Z,100221.34
2023-04-28T12:37:13.407Z,100225.03
2023-04-28T12:39:41.247Z,100215.16
2023-04-28T12:42:08.645Z,100207.09
2023-04-28T12:44:36.690Z,100203.31
2023-04-28T12:47:07.614Z,100185.63
2023-04-28T12:49:35.592Z,100189.69
2023-04-28T12:52:03.373Z,100177.13
2023-04-28T12:54:30.719Z,100180.00
2023-04-28T12:56:59.098Z,100163.72
2023-04-28T12:59:45.494Z,100156.16
2023-04-28T13:02:14.782Z,100146.28
2023-04-28T13:04:48.641Z,100139.28
2023-04-28T13:07:15.930Z,100134.16
2023-04-28T13:09:44.280Z,100139.03
2023-04-28T13:12:12.153Z,100131.94
2023-04-28T13:14:39.321Z,100128.97
2023-04-28T13:17:06.906Z,100121.00
2023-04-28T13:19:34.596Z,100128.37
2023-04-28T13:22:03.133Z,100125.44
2023-04-28T13:24:30.758Z,100126.56
2023-04-28T13:26:59.187Z,100127.00
2023-04-28T13:29:26.428Z,100125.09
2023-04-28T13:31:54.124Z,100122.53
2023-04-28T13:34:23.666Z,100117.75
2023-04-28T13:36:53.886Z,100128.87
2023-04-28T13:39:22.155Z,100124.63
2023-04-28T13:41:49.523Z,100132.00
2023-04-28T13:44:16.875Z,100128.69
2023-04-28T13:46:44.370Z,100131.66
2023-04-28T13:49:11.786Z,100118.31
2023-04-28T13:51:39.066Z,100102.38
2023-04-28T13:54:11.355Z,100099.03
2023-04-28T13:56:38.699Z,100105.34
2023-04-28T13:59:06.197Z,100101.69
2023-04-28T14:01:33.704Z,100093.38
2023-04-28T14:04:01.524Z,100083.97
2023-04-28T14:06:28.923Z,100071.53
2023-04-28T14:08:56.550Z,100064.75
2023-04-28T14:11:24.006Z,100084.13
2023-04-28T14:13:51.308Z,100080.50
2023-04-28T14:16:18.742Z,100076.25
2023-04-28T14:18:46.277Z,100072.44
2023-04-28T14:21:13.485Z,100075.53
2023-04-28T14:23:40.724Z,100067.06
2023-04-28T14:26:09.093Z,100069.09
2023-04-28T14:28:37.016Z,100069.59
2023-04-28T14:31:07.322Z,100066.25
2023-04-28T14:33:34.953Z,100069.38
2023-04-28T14:36:02.462Z,100053.84
2023-04-28T14:38:30.715Z,100059.56
2023-04-28T14:40:58.347Z,100047.28
2023-04-28T14:43:25.679Z,100050.50
2023-04-28T14:45:53.420Z,100050.22
2023-04-28T14:48:20.887Z,100049.91
2023-04-28T14:50:48.053Z,100050.37
2023-04-28T14:53:15.264Z,100039.00
2023-04-28T14:55:43.531Z,100041.72
2023-04-28T14:58:10.712Z,100039.50
2023-04-28T15:00:38.075Z,100040.84
2023-04-28T15:03:05.729Z,100042.41
2023-04-28T15:05:33.194Z,100035.88
2023-04-28T15:08:00.572Z,100039.75
2023-04-28T15:10:29.133Z,100038.50
2023-04-28T15:12:57.004Z,100032.94
2023-04-28T15:15:24.213Z,100040.78
2023-04-28T15:17:52.908Z,100039.09
2023-04-28T15:20:20.149Z,100025.22
2023-04-28T15:22:47.412Z,100015.44
2023-04-28T15:25:15.571Z,100016.00
2023-04-28T15:27:42.863Z,100019.03
2023-04-28T15:30:10.349Z,100018.03
2023-04-28T15:32:38.168Z,100011.09
2023-04-28T15:35:05.560Z,100013.06
2023-04-28T15:37:47.588Z,100023.47
2023-04-28T15:40:15.996Z,100022.34
2023-04-28T15:42:48.715Z,100022.28
2023-04-28T15:45:16.381Z,100017.03
2023-04-28T15:47:43.630Z,100017.22
2023-04-28T15:50:10.934Z,100017.50
2023-04-28T15:52:39.897Z,100014.84
2023-04-28T15:55:08.154Z,100008.59
2023-04-28T15:57:35.514Z,99998.97
2023-04-28T16:00:03.560Z,99997.12
2023-04-28T16:02:35.407Z,100002.03
2023-04-28T16:05:04.676Z,99995.44
2023-04-28T16:07:37.932Z,99994.09
2023-04-28T16:10:07.005Z,99996.75
2023-04-28T16:12:35.687Z,99990.91
2023-04-28T16:15:03.426Z,99995.00
2023-04-28T16:17:31.817Z,99990.88
2023-04-28T16:19:58.941Z,99988.09
2023-04-28T16:22:26.203Z,99984.31
2023-04-28T16:24:54.515Z,99987.66
2023-04-28T16:27:21.836Z,99980.88
2023-04-28T16:29:48.968Z,99974.62
2023-04-28T16:32:16.501Z,99970.78
2023-04-28T16:34:43.842Z,99967.44
2023-04-28T16:37:11.698Z,99956.84
2023-04-28T16:39:39.184Z,99952.47
2023-04-28T16:42:06.623Z,99952.78
2023-04-28T16:44:34.437Z,99950.03
2023-04-28T16:47:01.910Z,99951.91
2023-04-28T16:49:29.254Z,99942.16
2023-04-28T16:51:57.697Z,99943.16
2023-04-28T16:54:25.592Z,99945.16
2023-04-28T16:56:52.757Z,99938.50
2023-04-28T16:59:19.953Z,99932.94
2023-04-28T17:01:47.527Z,99923.72
2023-04-28T17:04:15.086Z,99923.25
2023-04-28T17:06:42.418Z,99920.13
2023-04-28T17:09:09.946Z,99918.63
2023-04-28T17:11:40.265Z,99913.56
2023-04-28T17:14:07.401Z,99907.47
2023-04-28T17:16:34.844Z,99907.06
2023-04-28T17:19:02.409Z,99901.22
2023-04-28T17:21:29.882Z,99883.78
2023-04-28T17:23:58.091Z,99885.56
2023-04-28T17:26:25.669Z,99882.94
2023-04-28T17:28:53.456Z,99877.31
2023-04-28T17:31:21.752Z,99878.97
2023-04-28T17:33:50.592Z,99894.97
2023-04-28T17:36:18.271Z,99893.41
2023-04-28T17:38:46.085Z,99910.06
2023-04-28T17:41:13.515Z,99909.81
2023-04-28T17:43:40.685Z,99915.25
2023-04-28T17:46:08.142Z,99913.62
2023-04-28T17:48:35.361Z,99918.22
2023-04-28T17:51:03.124Z,99905.09
2023-04-28T17:53:30.664Z,99910.81
2023-04-28T17:55:57.824Z,99907.91
2023-04-28T17:58:24.964Z,99910.69
2023-04-28T18:00:59.174Z,99912.91
2023-04-28T18:03:27.130Z,99930.91
2023-04-28T18:05:54.638Z,99922.78
2023-04-28T18:08:22.124Z,99929.19
2023-04-28T18:10:49.769Z,99936.34
2023-04-28T18:13:16.994Z,99932.56
2023-04-28T18:15:44.870Z,99929.75
2023-04-28T18:18:12.958Z,99929.59
2023-04-28T18:20:41.971Z,99923.41
2023-04-28T18:23:09.834Z,99938.25
2023-04-28T18:25:38.200Z,99927.00
2023-04-28T18:28:05.894Z,99928.41
2023-04-28T18:30:39.532Z,99925.41
2023-04-28T18:33:08.112Z,99926.16
2023-04-28T18:35:35.610Z,99929.31
2023-04-28T18:38:03.792Z,99929.94
2023-04-28T18:40:40.410Z,99932.34
2023-04-28T18:43:10.797Z,99927.19
2023-04-28T18:45:41.287Z,99927.44
2023-04-28T18:48:10.007Z,99934.50
2023-04-28T18:50:38.874Z,99933.22
2023-04-28T18:53:09.421Z,99933.84
2023-04-28T18:55:37.157Z,99933.37
2023-04-28T18:58:04.889Z,99931.25
2023-04-28T19:00:33.409Z,99931.75
2023-04-28T19:03:02.311Z,99925.59
2023-04-28T19:08:12.558Z,99928.25
2023-04-28T19:10:41.589Z,99920.91
2023-04-28T19:13:09.175Z,99927.34
2023-04-28T19:15:36.715Z,99927.78
2023-04-28T19:18:05.224Z,99943.03
2023-04-28T19:20:32.884Z,99946.75
2023-04-28T19:23:03.988Z,99948.78
2023-04-28T19:25:34.014Z,99947.81
2023-04-28T19:28:01.700Z,99943.00
2023-04-28T19:30:29.926Z,99953.03
2023-04-28T19:32:57.835Z,99954.19
2023-04-28T19:35:26.550Z,99953.84
2023-04-28T19:37:55.223Z,99955.16
2023-04-28T19:40:26.687Z,99954.84
2023-04-28T19:42:55.953Z,99956.34
2023-04-28T19:45:23.528Z,99959.25
2023-04-28T19:47:53.283Z,99955.37
2023-04-28T19:50:20.489Z,99959.28
2023-04-28T19:52:48.245Z,99947.41
2023-04-28T19:55:20.876Z,99943.09
2023-04-28T19:57:48.970Z,99947.25
2023-04-28T20:00:16.639Z,99944.44
2023-04-28T20:02:45.533Z,99934.41
2023-04-28T20:05:15.496Z,99921.78
2023-04-28T20:07:43.134Z,99922.66
2023-04-28T20:10:12.370Z,99914.25
2023-04-28T20:12:40.219Z,99899.38
2023-04-28T20:15:09.080Z,99901.78
2023-04-28T20:17:37.143Z,99901.63
2023-04-28T20:20:07.287Z,99908.47
2023-04-28T20:22:38.163Z,99904.06
2023-04-28T20:25:11.525Z,99895.41
2023-04-28T20:27:39.450Z,99892.88
2023-04-28T20:30:08.078Z,99901.78
2023-04-28T20:32:36.710Z,99890.75
2023-04-28T20:35:05.749Z,99895.03
2023-04-28T20:37:34.169Z,99888.41
2023-04-28T20:40:01.395Z,99884.41
2023-04-28T20:42:29.303Z,99883.22
2023-04-28T20:44:56.810Z,99896.31
2023-04-28T20:47:24.111Z,99892.59
2023-04-28T20:49:51.577Z,99889.50
2023-04-28T20:52:19.305Z,99893.87
2023-04-28T20:54:46.889Z,99894.03
2023-04-28T20:57:14.218Z,99912.19
2023-04-28T20:59:41.684Z,99905.56
2023-04-28T21:02:09.121Z,99901.63
2023-04-28T21:04:36.728Z,99892.34
2023-04-28T21:07:04.220Z,99894.59
2023-04-28T21:09:31.468Z,99890.06
2023-04-28T21:11:58.679Z,99889.78
2023-04-28T21:14:26.371Z,99889.97
2023-04-28T21:16:53.609Z,99880.59
2023-04-28T21:19:20.836Z,99891.81
2023-04-28T21:21:48.245Z,99891.44
2023-04-28T21:24:15.377Z,99897.94
2023-04-28T21:26:43.176Z,99888.50
2023-04-28T21:29:10.579Z,99886.50
2023-04-28T21:31:37.826Z,99893.63
2023-04-28T21:34:06.555Z,99897.53
2023-04-28T21:36:34.462Z,99898.69
2023-04-28T21:39:03.926Z,99892.44
2023-04-28T21:41:31.759Z,99892.09
2023-04-28T21:43:59.774Z,99886.87
2023-04-28T21:46:27.018Z,99893.41
2023-04-28T21:48:54.247Z,99887.06
2023-04-28T21:51:21.903Z,99880.69
2023-04-28T21:53:49.086Z,99882.53
2023-04-28T21:56:17.254Z,99886.06
2023-04-28T21:58:45.132Z,99886.31
2023-04-28T22:03:43.026Z,99892.47
2023-04-28T22:06:10.318Z,99897.47
2023-04-28T22:08:38.419Z,99887.75
2023-04-28T22:11:06.834Z,99887.56
2023-04-28T22:13:33.968Z,99894.22
2023-04-28T22:16:01.990Z,99895.31
2023-04-28T22:18:29.622Z,99896.03
2023-04-28T22:20:56.787Z,99891.69
2023-04-28T22:23:23.921Z,99900.47
2023-04-28T22:25:51.427Z,99895.88
2023-04-28T22:28:18.674Z,99895.78
2023-04-28T22:30:46.790Z,99879.41
2023-04-28T22:33:14.308Z,99871.03
2023-04-28T22:35:42.511Z,99881.81
2023-04-28T22:38:09.683Z,99881.44
2023-04-28T22:40:37.131Z,99884.00
2023-04-28T22:43:04.348Z,99876.59
2023-04-28T22:45:31.457Z,99882.31
2023-04-28T22:47:58.893Z,99879.50
2023-04-28T22:50:26.121Z,99874.84
2023-04-28T22:52:53.356Z,99874.41
2023-04-28T22:55:20.890Z,99880.16
2023-04-28T22:57:48.110Z,99873.94
2023-04-28T23:00:18.208Z,99870.84
2023-04-28T23:02:45.974Z,99877.84
2023-04-28T23:05:13.390Z,99880.69
2023-04-28T23:07:41.064Z,99868.28
2023-04-28T23:10:08.575Z,99867.28
2023-04-28T23:12:35.710Z,99864.75
2023-04-28T23:15:02.874Z,99864.84
2023-04-28T23:17:30.579Z,99868.59
2023-04-28T23:19:58.166Z,99860.19
2023-04-28T23:22:25.344Z,99857.28
2023-04-28T23:24:52.867Z,99859.38
2023-04-28T23:27:19.978Z,99851.38
2023-04-28T23:29:47.112Z,99857.00
2023-04-28T23:32:14.559Z,99852.31
2023-04-28T23:34:42.773Z,99848.16
2023-04-28T23:37:10.431Z,99845.09
2023-04-28T23:39:37.858Z,99846.75
2023-04-28T23:42:05.037Z,99836.66
2023-04-28T23:44:32.225Z,99840.28
2023-04-28T23:46:59.648Z,99834.19
2023-04-28T23:49:26.862Z,99828.88
2023-04-28T23:51:54.506Z,99836.38
2023-04-28T23:54:21.889Z,99831.72
2023-04-28T23:56:49.266Z,99820.41
2023-04-28T23:59:16.599Z,99816.28
